sensor_id;sensor_type;location;lat;lon;timestamp;P1;durP1;ratioP1;P2;durP2;ratioP2
85510;SDS011;75921;51.616;11.880;2024-03-22T00:00:29;10.37;;;5.77;;
85510;SDS011;75921;51.616;11.880;2024-03-22T00:02:54;10.80;;;5.57;;
85510;SDS011;75921;51.616;11.880;2024-03-22T00:05:20;9.83;;;5.57;;
85510;SDS011;75921;51.616;11.880;2024-03-22T00:07:47;8.43;;;5.32;;
85510;SDS011;75921;51.616;11.880;2024-03-22T00:10:12;11.75;;;6.13;;
85510;SDS011;75921;51.616;11.880;2024-03-22T00:12:38;10.55;;;6.03;;
85510;SDS011;75921;51.616;11.880;2024-03-22T00:15:04;11.93;;;6.40;;
85510;SDS011;75921;51.616;11.880;2024-03-22T00:17:29;10.55;;;5.90;;
85510;SDS011;75921;51.616;11.880;2024-03-22T00:19:55;12.55;;;5.80;;
85510;SDS011;75921;51.616;11.880;2024-03-22T00:22:21;12.15;;;6.10;;
85510;SDS011;75921;51.616;11.880;2024-03-22T00:24:46;10.27;;;5.57;;
85510;SDS011;75921;51.616;11.880;2024-03-22T00:27:11;9.10;;;5.37;;
85510;SDS011;75921;51.616;11.880;2024-03-22T00:29:37;14.05;;;7.03;;
85510;SDS011;75921;51.616;11.880;2024-03-22T00:32:03;12.32;;;7.05;;
85510;SDS011;75921;51.616;11.880;2024-03-22T00:34:28;12.18;;;6.30;;
85510;SDS011;75921;51.616;11.880;2024-03-22T00:36:54;14.90;;;6.83;;
85510;SDS011;75921;51.616;11.880;2024-03-22T00:39:19;11.47;;;6.37;;
85510;SDS011;75921;51.616;11.880;2024-03-22T00:41:44;12.50;;;6.63;;
85510;SDS011;75921;51.616;11.880;2024-03-22T00:44:09;12.63;;;6.53;;
85510;SDS011;75921;51.616;11.880;2024-03-22T00:46:35;13.13;;;6.63;;
85510;SDS011;75921;51.616;11.880;2024-03-22T00:49:00;13.02;;;7.75;;
85510;SDS011;75921;51.616;11.880;2024-03-22T00:51:26;14.00;;;6.80;;
85510;SDS011;75921;51.616;11.880;2024-03-22T00:53:51;13.50;;;6.60;;
85510;SDS011;75921;51.616;11.880;2024-03-22T00:56:16;14.13;;;6.57;;
85510;SDS011;75921;51.616;11.880;2024-03-22T00:58:42;14.40;;;7.33;;
85510;SDS011;75921;51.616;11.880;2024-03-22T01:01:07;9.40;;;6.10;;
85510;SDS011;75921;51.616;11.880;2024-03-22T01:03:32;12.13;;;6.03;;
85510;SDS011;75921;51.616;11.880;2024-03-22T01:05:58;11.80;;;6.77;;
85510;SDS011;75921;51.616;11.880;2024-03-22T01:08:23;11.37;;;6.60;;
85510;SDS011;75921;51.616;11.880;2024-03-22T01:10:48;13.17;;;7.53;;
85510;SDS011;75921;51.616;11.880;2024-03-22T01:13:13;14.40;;;6.77;;
85510;SDS011;75921;51.616;11.880;2024-03-22T01:15:38;13.50;;;6.17;;
85510;SDS011;75921;51.616;11.880;2024-03-22T01:18:04;13.13;;;5.97;;
85510;SDS011;75921;51.616;11.880;2024-03-22T01:20:29;14.10;;;7.93;;
85510;SDS011;75921;51.616;11.880;2024-03-22T01:22:55;12.25;;;6.70;;
85510;SDS011;75921;51.616;11.880;2024-03-22T01:25:20;14.57;;;7.83;;
85510;SDS011;75921;51.616;11.880;2024-03-22T01:27:45;13.53;;;7.30;;
85510;SDS011;75921;51.616;11.880;2024-03-22T01:30:10;10.37;;;5.93;;
85510;SDS011;75921;51.616;11.880;2024-03-22T01:32:36;12.82;;;6.40;;
85510;SDS011;75921;51.616;11.880;2024-03-22T01:35:02;10.65;;;6.35;;
85510;SDS011;75921;51.616;11.880;2024-03-22T01:37:27;11.03;;;6.70;;
85510;SDS011;75921;51.616;11.880;2024-03-22T01:39:52;11.47;;;6.23;;
85510;SDS011;75921;51.616;11.880;2024-03-22T01:42:17;9.40;;;5.73;;
85510;SDS011;75921;51.616;11.880;2024-03-22T01:44:42;12.10;;;6.60;;
85510;SDS011;75921;51.616;11.880;2024-03-22T01:47:08;12.80;;;6.57;;
85510;SDS011;75921;51.616;11.880;2024-03-22T01:49:33;10.98;;;6.60;;
85510;SDS011;75921;51.616;11.880;2024-03-22T01:51:59;14.93;;;6.22;;
85510;SDS011;75921;51.616;11.880;2024-03-22T01:54:25;11.27;;;6.63;;
85510;SDS011;75921;51.616;11.880;2024-03-22T01:56:50;12.50;;;5.97;;
85510;SDS011;75921;51.616;11.880;2024-03-22T01:59:15;10.53;;;6.70;;
85510;SDS011;75921;51.616;11.880;2024-03-22T02:01:42;11.18;;;5.88;;
85510;SDS011;75921;51.616;11.880;2024-03-22T02:04:07;12.32;;;6.03;;
85510;SDS011;75921;51.616;11.880;2024-03-22T02:06:33;14.07;;;5.87;;
85510;SDS011;75921;51.616;11.880;2024-03-22T02:08:58;10.10;;;5.90;;
85510;SDS011;75921;51.616;11.880;2024-03-22T02:11:24;10.60;;;6.07;;
85510;SDS011;75921;51.616;11.880;2024-03-22T02:13:50;10.07;;;5.32;;
85510;SDS011;75921;51.616;11.880;2024-03-22T02:16:16;13.37;;;6.63;;
85510;SDS011;75921;51.616;11.880;2024-03-22T02:18:41;13.13;;;6.53;;
85510;SDS011;75921;51.616;11.880;2024-03-22T02:21:07;14.82;;;7.22;;
85510;SDS011;75921;51.616;11.880;2024-03-22T02:23:36;14.33;;;8.20;;
85510;SDS011;75921;51.616;11.880;2024-03-22T02:26:02;16.48;;;8.20;;
85510;SDS011;75921;51.616;11.880;2024-03-22T02:28:29;15.02;;;7.40;;
85510;SDS011;75921;51.616;11.880;2024-03-22T02:30:55;13.60;;;8.27;;
85510;SDS011;75921;51.616;11.880;2024-03-22T02:33:20;15.27;;;6.80;;
85510;SDS011;75921;51.616;11.880;2024-03-22T02:35:46;14.03;;;7.67;;
85510;SDS011;75921;51.616;11.880;2024-03-22T02:38:12;15.23;;;7.80;;
85510;SDS011;75921;51.616;11.880;2024-03-22T02:40:37;15.57;;;8.53;;
85510;SDS011;75921;51.616;11.880;2024-03-22T02:43:02;12.67;;;7.67;;
85510;SDS011;75921;51.616;11.880;2024-03-22T02:45:27;13.85;;;7.65;;
85510;SDS011;75921;51.616;11.880;2024-03-22T02:47:53;20.90;;;8.00;;
85510;SDS011;75921;51.616;11.880;2024-03-22T02:50:18;12.87;;;7.67;;
85510;SDS011;75921;51.616;11.880;2024-03-22T02:52:43;12.40;;;7.67;;
85510;SDS011;75921;51.616;11.880;2024-03-22T02:55:08;12.07;;;7.13;;
85510;SDS011;75921;51.616;11.880;2024-03-22T02:57:33;14.80;;;7.77;;
85510;SDS011;75921;51.616;11.880;2024-03-22T03:00:02;12.00;;;7.13;;
85510;SDS011;75921;51.616;11.880;2024-03-22T03:02:28;13.80;;;7.55;;
85510;SDS011;75921;51.616;11.880;2024-03-22T03:04:53;15.20;;;7.37;;
85510;SDS011;75921;51.616;11.880;2024-03-22T03:07:19;14.30;;;7.67;;
85510;SDS011;75921;51.616;11.880;2024-03-22T03:09:44;14.10;;;7.57;;
85510;SDS011;75921;51.616;11.880;2024-03-22T03:12:09;15.77;;;9.07;;
85510;SDS011;75921;51.616;11.880;2024-03-22T03:14:34;13.83;;;7.53;;
85510;SDS011;75921;51.616;11.880;2024-03-22T03:16:59;12.90;;;7.67;;
85510;SDS011;75921;51.616;11.880;2024-03-22T03:19:25;17.33;;;9.67;;
85510;SDS011;75921;51.616;11.880;2024-03-22T03:21:50;15.87;;;8.13;;
85510;SDS011;75921;51.616;11.880;2024-03-22T03:24:15;11.40;;;6.83;;
85510;SDS011;75921;51.616;11.880;2024-03-22T03:26:41;11.38;;;6.25;;
85510;SDS011;75921;51.616;11.880;2024-03-22T03:29:06;11.77;;;7.30;;
85510;SDS011;75921;51.616;11.880;2024-03-22T03:31:31;16.37;;;9.90;;
85510;SDS011;75921;51.616;11.880;2024-03-22T03:33:57;16.70;;;8.85;;
85510;SDS011;75921;51.616;11.880;2024-03-22T03:36:22;19.30;;;10.20;;
85510;SDS011;75921;51.616;11.880;2024-03-22T03:38:47;19.50;;;9.77;;
85510;SDS011;75921;51.616;11.880;2024-03-22T03:41:12;14.73;;;9.03;;
85510;SDS011;75921;51.616;11.880;2024-03-22T03:43:38;15.10;;;9.30;;
85510;SDS011;75921;51.616;11.880;2024-03-22T03:46:03;12.47;;;8.30;;
85510;SDS011;75921;51.616;11.880;2024-03-22T03:48:28;15.43;;;8.75;;
85510;SDS011;75921;51.616;11.880;2024-03-22T03:50:54;11.67;;;7.53;;
85510;SDS011;75921;51.616;11.880;2024-03-22T03:53:20;14.07;;;8.82;;
85510;SDS011;75921;51.616;11.880;2024-03-22T03:55:46;13.20;;;8.60;;
85510;SDS011;75921;51.616;11.880;2024-03-22T03:58:11;15.63;;;8.30;;
85510;SDS011;75921;51.616;11.880;2024-03-22T04:00:36;15.68;;;8.95;;
85510;SDS011;75921;51.616;11.880;2024-03-22T04:03:02;16.50;;;8.73;;
85510;SDS011;75921;51.616;11.880;2024-03-22T04:05:27;15.77;;;8.48;;
85510;SDS011;75921;51.616;11.880;2024-03-22T04:07:53;19.58;;;11.55;;
85510;SDS011;75921;51.616;11.880;2024-03-22T04:10:18;15.83;;;8.97;;
85510;SDS011;75921;51.616;11.880;2024-03-22T04:12:44;15.07;;;9.00;;
85510;SDS011;75921;51.616;11.880;2024-03-22T04:15:10;14.18;;;8.32;;
85510;SDS011;75921;51.616;11.880;2024-03-22T04:17:35;18.57;;;10.73;;
85510;SDS011;75921;51.616;11.880;2024-03-22T04:20:00;15.43;;;8.20;;
85510;SDS011;75921;51.616;11.880;2024-03-22T04:22:27;16.10;;;8.80;;
85510;SDS011;75921;51.616;11.880;2024-03-22T04:24:52;14.07;;;8.53;;
85510;SDS011;75921;51.616;11.880;2024-03-22T04:27:18;13.73;;;8.80;;
85510;SDS011;75921;51.616;11.880;2024-03-22T04:29:43;16.63;;;8.37;;
85510;SDS011;75921;51.616;11.880;2024-03-22T04:32:12;11.05;;;7.18;;
85510;SDS011;75921;51.616;11.880;2024-03-22T04:34:41;13.40;;;7.93;;
85510;SDS011;75921;51.616;11.880;2024-03-22T04:37:07;16.42;;;8.70;;
85510;SDS011;75921;51.616;11.880;2024-03-22T04:39:32;11.70;;;7.35;;
85510;SDS011;75921;51.616;11.880;2024-03-22T04:41:57;16.40;;;8.47;;
85510;SDS011;75921;51.616;11.880;2024-03-22T04:44:22;12.17;;;6.63;;
85510;SDS011;75921;51.616;11.880;2024-03-22T04:46:48;10.50;;;7.10;;
85510;SDS011;75921;51.616;11.880;2024-03-22T04:49:13;15.47;;;7.13;;
85510;SDS011;75921;51.616;11.880;2024-03-22T04:51:38;14.63;;;7.90;;
85510;SDS011;75921;51.616;11.880;2024-03-22T04:54:04;13.13;;;7.20;;
85510;SDS011;75921;51.616;11.880;2024-03-22T04:56:29;13.60;;;7.57;;
85510;SDS011;75921;51.616;11.880;2024-03-22T04:58:54;19.40;;;11.07;;
85510;SDS011;75921;51.616;11.880;2024-03-22T05:01:20;21.02;;;9.63;;
85510;SDS011;75921;51.616;11.880;2024-03-22T05:03:45;16.13;;;8.75;;
85510;SDS011;75921;51.616;11.880;2024-03-22T05:06:10;17.67;;;9.93;;
85510;SDS011;75921;51.616;11.880;2024-03-22T05:08:36;15.27;;;8.73;;
85510;SDS011;75921;51.616;11.880;2024-03-22T05:11:01;14.73;;;8.90;;
85510;SDS011;75921;51.616;11.880;2024-03-22T05:13:26;21.57;;;11.30;;
85510;SDS011;75921;51.616;11.880;2024-03-22T05:15:51;16.23;;;9.07;;
85510;SDS011;75921;51.616;11.880;2024-03-22T05:18:17;18.40;;;10.13;;
85510;SDS011;75921;51.616;11.880;2024-03-22T05:20:42;22.00;;;11.37;;
85510;SDS011;75921;51.616;11.880;2024-03-22T05:23:07;20.75;;;12.07;;
85510;SDS011;75921;51.616;11.880;2024-03-22T05:25:33;20.77;;;12.07;;
85510;SDS011;75921;51.616;11.880;2024-03-22T05:27:58;21.30;;;11.93;;
85510;SDS011;75921;51.616;11.880;2024-03-22T05:30:23;20.13;;;11.53;;
85510;SDS011;75921;51.616;11.880;2024-03-22T05:32:48;20.43;;;12.20;;
85510;SDS011;75921;51.616;11.880;2024-03-22T05:35:15;22.92;;;13.02;;
85510;SDS011;75921;51.616;11.880;2024-03-22T05:37:40;21.90;;;11.53;;
85510;SDS011;75921;51.616;11.880;2024-03-22T05:40:05;16.17;;;9.53;;
85510;SDS011;75921;51.616;11.880;2024-03-22T05:42:31;15.85;;;9.07;;
85510;SDS011;75921;51.616;11.880;2024-03-22T05:44:57;25.10;;;12.13;;
85510;SDS011;75921;51.616;11.880;2024-03-22T05:47:22;17.90;;;11.27;;
85510;SDS011;75921;51.616;11.880;2024-03-22T05:49:47;21.67;;;12.60;;
85510;SDS011;75921;51.616;11.880;2024-03-22T05:52:12;21.80;;;11.50;;
85510;SDS011;75921;51.616;11.880;2024-03-22T05:54:38;21.10;;;10.93;;
85510;SDS011;75921;51.616;11.880;2024-03-22T05:57:03;19.03;;;10.33;;
85510;SDS011;75921;51.616;11.880;2024-03-22T05:59:30;19.88;;;10.68;;
85510;SDS011;75921;51.616;11.880;2024-03-22T06:01:55;23.70;;;12.50;;
85510;SDS011;75921;51.616;11.880;2024-03-22T06:04:20;18.53;;;9.73;;
85510;SDS011;75921;51.616;11.880;2024-03-22T06:06:45;21.03;;;12.50;;
85510;SDS011;75921;51.616;11.880;2024-03-22T06:09:11;18.40;;;9.90;;
85510;SDS011;75921;51.616;11.880;2024-03-22T06:11:38;15.55;;;8.02;;
85510;SDS011;75921;51.616;11.880;2024-03-22T06:14:03;13.23;;;7.10;;
85510;SDS011;75921;51.616;11.880;2024-03-22T06:16:29;14.27;;;8.85;;
85510;SDS011;75921;51.616;11.880;2024-03-22T06:18:54;10.63;;;5.80;;
85510;SDS011;75921;51.616;11.880;2024-03-22T06:21:19;17.77;;;9.47;;
85510;SDS011;75921;51.616;11.880;2024-03-22T06:23:48;16.05;;;9.13;;
85510;SDS011;75921;51.616;11.880;2024-03-22T06:26:14;16.50;;;8.65;;
85510;SDS011;75921;51.616;11.880;2024-03-22T06:28:40;21.73;;;10.65;;
85510;SDS011;75921;51.616;11.880;2024-03-22T06:31:05;22.60;;;11.73;;
85510;SDS011;75921;51.616;11.880;2024-03-22T06:33:30;21.13;;;11.73;;
85510;SDS011;75921;51.616;11.880;2024-03-22T06:35:55;19.00;;;11.13;;
85510;SDS011;75921;51.616;11.880;2024-03-22T06:38:21;22.87;;;11.00;;
85510;SDS011;75921;51.616;11.880;2024-03-22T06:40:46;18.47;;;10.80;;
85510;SDS011;75921;51.616;11.880;2024-03-22T06:43:11;18.20;;;9.73;;
85510;SDS011;75921;51.616;11.880;2024-03-22T06:45:37;18.37;;;9.30;;
85510;SDS011;75921;51.616;11.880;2024-03-22T06:48:02;23.47;;;12.67;;
85510;SDS011;75921;51.616;11.880;2024-03-22T06:50:27;24.58;;;11.30;;
85510;SDS011;75921;51.616;11.880;2024-03-22T06:52:53;22.70;;;11.90;;
85510;SDS011;75921;51.616;11.880;2024-03-22T06:55:19;21.92;;;10.82;;
85510;SDS011;75921;51.616;11.880;2024-03-22T06:57:45;23.85;;;11.77;;
85510;SDS011;75921;51.616;11.880;2024-03-22T07:00:12;23.42;;;12.60;;
85510;SDS011;75921;51.616;11.880;2024-03-22T07:02:38;25.35;;;11.77;;
85510;SDS011;75921;51.616;11.880;2024-03-22T07:05:03;29.40;;;12.68;;
85510;SDS011;75921;51.616;11.880;2024-03-22T07:07:29;29.02;;;14.18;;
85510;SDS011;75921;51.616;11.880;2024-03-22T07:09:54;24.20;;;12.77;;
85510;SDS011;75921;51.616;11.880;2024-03-22T07:12:19;25.13;;;13.97;;
85510;SDS011;75921;51.616;11.880;2024-03-22T07:14:45;29.70;;;14.70;;
85510;SDS011;75921;51.616;11.880;2024-03-22T07:17:10;28.33;;;12.73;;
85510;SDS011;75921;51.616;11.880;2024-03-22T07:19:35;31.80;;;14.37;;
85510;SDS011;75921;51.616;11.880;2024-03-22T07:22:01;25.38;;;13.57;;
85510;SDS011;75921;51.616;11.880;2024-03-22T07:24:26;32.17;;;16.10;;
85510;SDS011;75921;51.616;11.880;2024-03-22T07:26:51;29.87;;;16.27;;
85510;SDS011;75921;51.616;11.880;2024-03-22T07:29:17;32.20;;;14.00;;
85510;SDS011;75921;51.616;11.880;2024-03-22T07:31:42;28.73;;;15.93;;
85510;SDS011;75921;51.616;11.880;2024-03-22T07:34:07;33.37;;;16.27;;
85510;SDS011;75921;51.616;11.880;2024-03-22T07:36:36;31.30;;;16.87;;
85510;SDS011;75921;51.616;11.880;2024-03-22T07:39:02;27.02;;;14.38;;
85510;SDS011;75921;51.616;11.880;2024-03-22T07:41:30;23.23;;;12.68;;
85510;SDS011;75921;51.616;11.880;2024-03-22T07:43:57;31.40;;;17.02;;
85510;SDS011;75921;51.616;11.880;2024-03-22T07:46:22;30.83;;;13.93;;
85510;SDS011;75921;51.616;11.880;2024-03-22T07:48:48;31.50;;;15.95;;
85510;SDS011;75921;51.616;11.880;2024-03-22T07:51:13;29.23;;;14.85;;
85510;SDS011;75921;51.616;11.880;2024-03-22T07:53:39;31.67;;;15.73;;
85510;SDS011;75921;51.616;11.880;2024-03-22T07:56:04;30.20;;;15.37;;
85510;SDS011;75921;51.616;11.880;2024-03-22T07:58:29;34.50;;;17.45;;
85510;SDS011;75921;51.616;11.880;2024-03-22T08:00:55;32.40;;;15.33;;
85510;SDS011;75921;51.616;11.880;2024-03-22T08:03:20;33.22;;;16.42;;
85510;SDS011;75921;51.616;11.880;2024-03-22T08:05:46;27.53;;;14.97;;
85510;SDS011;75921;51.616;11.880;2024-03-22T08:08:11;35.27;;;21.70;;
85510;SDS011;75921;51.616;11.880;2024-03-22T08:10:36;24.03;;;11.87;;
85510;SDS011;75921;51.616;11.880;2024-03-22T08:13:01;32.20;;;16.43;;
85510;SDS011;75921;51.616;11.880;2024-03-22T08:15:27;35.13;;;20.00;;
85510;SDS011;75921;51.616;11.880;2024-03-22T08:17:52;28.75;;;15.63;;
85510;SDS011;75921;51.616;11.880;2024-03-22T08:20:17;33.20;;;16.20;;
85510;SDS011;75921;51.616;11.880;2024-03-22T08:22:43;33.40;;;15.67;;
85510;SDS011;75921;51.616;11.880;2024-03-22T08:25:08;30.40;;;14.13;;
85510;SDS011;75921;51.616;11.880;2024-03-22T08:27:33;34.15;;;16.95;;
85510;SDS011;75921;51.616;11.880;2024-03-22T08:29:59;37.33;;;20.02;;
85510;SDS011;75921;51.616;11.880;2024-03-22T08:32:24;36.78;;;18.65;;
85510;SDS011;75921;51.616;11.880;2024-03-22T08:34:50;34.40;;;16.40;;
85510;SDS011;75921;51.616;11.880;2024-03-22T08:37:15;27.43;;;14.67;;
85510;SDS011;75921;51.616;11.880;2024-03-22T08:39:40;38.70;;;17.63;;
85510;SDS011;75921;51.616;11.880;2024-03-22T08:42:06;36.38;;;19.10;;
85510;SDS011;75921;51.616;11.880;2024-03-22T08:44:31;34.78;;;16.80;;
85510;SDS011;75921;51.616;11.880;2024-03-22T08:46:56;31.48;;;16.77;;
85510;SDS011;75921;51.616;11.880;2024-03-22T08:49:23;30.67;;;14.88;;
85510;SDS011;75921;51.616;11.880;2024-03-22T08:51:48;37.40;;;18.17;;
85510;SDS011;75921;51.616;11.880;2024-03-22T08:54:14;37.93;;;17.73;;
85510;SDS011;75921;51.616;11.880;2024-03-22T08:56:39;41.28;;;20.42;;
85510;SDS011;75921;51.616;11.880;2024-03-22T08:59:04;36.47;;;18.10;;
85510;SDS011;75921;51.616;11.880;2024-03-22T09:01:30;37.38;;;17.17;;
85510;SDS011;75921;51.616;11.880;2024-03-22T09:03:56;31.38;;;18.15;;
85510;SDS011;75921;51.616;11.880;2024-03-22T09:06:21;34.57;;;17.07;;
85510;SDS011;75921;51.616;11.880;2024-03-22T09:08:46;37.05;;;15.77;;
85510;SDS011;75921;51.616;11.880;2024-03-22T09:11:12;36.00;;;17.10;;
85510;SDS011;75921;51.616;11.880;2024-03-22T09:13:37;36.15;;;17.20;;
85510;SDS011;75921;51.616;11.880;2024-03-22T09:16:03;44.72;;;22.15;;
85510;SDS011;75921;51.616;11.880;2024-03-22T09:18:28;38.72;;;19.00;;
85510;SDS011;75921;51.616;11.880;2024-03-22T09:20:54;37.73;;;20.97;;
85510;SDS011;75921;51.616;11.880;2024-03-22T09:23:19;38.97;;;21.50;;
85510;SDS011;75921;51.616;11.880;2024-03-22T09:25:45;37.42;;;18.17;;
85510;SDS011;75921;51.616;11.880;2024-03-22T09:28:12;43.30;;;22.35;;
85510;SDS011;75921;51.616;11.880;2024-03-22T09:30:37;44.20;;;22.17;;
85510;SDS011;75921;51.616;11.880;2024-03-22T09:33:04;30.05;;;16.33;;
85510;SDS011;75921;51.616;11.880;2024-03-22T09:35:29;40.10;;;21.15;;
85510;SDS011;75921;51.616;11.880;2024-03-22T09:37:56;34.63;;;16.98;;
85510;SDS011;75921;51.616;11.880;2024-03-22T09:40:21;38.90;;;19.70;;
85510;SDS011;75921;51.616;11.880;2024-03-22T09:42:46;42.47;;;18.73;;
85510;SDS011;75921;51.616;11.880;2024-03-22T09:45:14;53.85;;;23.27;;
85510;SDS011;75921;51.616;11.880;2024-03-22T09:47:43;40.03;;;20.88;;
85510;SDS011;75921;51.616;11.880;2024-03-22T09:50:10;38.55;;;19.42;;
85510;SDS011;75921;51.616;11.880;2024-03-22T09:52:37;38.65;;;17.58;;
85510;SDS011;75921;51.616;11.880;2024-03-22T09:55:03;38.20;;;20.92;;
85510;SDS011;75921;51.616;11.880;2024-03-22T09:57:34;33.65;;;15.80;;
85510;SDS011;75921;51.616;11.880;2024-03-22T10:00:02;36.08;;;15.38;;
85510;SDS011;75921;51.616;11.880;2024-03-22T10:02:28;35.03;;;19.52;;
85510;SDS011;75921;51.616;11.880;2024-03-22T10:04:53;35.30;;;19.43;;
85510;SDS011;75921;51.616;11.880;2024-03-22T10:07:18;31.93;;;16.43;;
85510;SDS011;75921;51.616;11.880;2024-03-22T10:09:44;30.30;;;13.88;;
85510;SDS011;75921;51.616;11.880;2024-03-22T10:12:09;36.22;;;22.65;;
85510;SDS011;75921;51.616;11.880;2024-03-22T10:14:34;34.17;;;17.10;;
85510;SDS011;75921;51.616;11.880;2024-03-22T10:17:01;31.92;;;16.77;;
85510;SDS011;75921;51.616;11.880;2024-03-22T10:19:27;31.00;;;15.80;;
85510;SDS011;75921;51.616;11.880;2024-03-22T10:21:59;34.10;;;19.23;;
85510;SDS011;75921;51.616;11.880;2024-03-22T10:24:25;26.85;;;12.68;;
85510;SDS011;75921;51.616;11.880;2024-03-22T10:26:51;27.93;;;12.70;;
85510;SDS011;75921;51.616;11.880;2024-03-22T10:29:16;31.05;;;15.35;;
85510;SDS011;75921;51.616;11.880;2024-03-22T10:31:41;31.50;;;15.27;;
85510;SDS011;75921;51.616;11.880;2024-03-22T10:34:07;31.10;;;18.63;;
85510;SDS011;75921;51.616;11.880;2024-03-22T10:36:34;29.63;;;15.48;;
85510;SDS011;75921;51.616;11.880;2024-03-22T10:38:59;23.10;;;12.38;;
85510;SDS011;75921;51.616;11.880;2024-03-22T10:41:26;31.52;;;16.27;;
85510;SDS011;75921;51.616;11.880;2024-03-22T10:43:52;27.57;;;15.07;;
85510;SDS011;75921;51.616;11.880;2024-03-22T10:46:19;30.17;;;14.73;;
85510;SDS011;75921;51.616;11.880;2024-03-22T10:48:45;31.20;;;14.70;;
85510;SDS011;75921;51.616;11.880;2024-03-22T10:51:11;28.65;;;15.70;;
85510;SDS011;75921;51.616;11.880;2024-03-22T10:53:37;31.55;;;15.35;;
85510;SDS011;75921;51.616;11.880;2024-03-22T10:56:03;33.72;;;16.65;;
85510;SDS011;75921;51.616;11.880;2024-03-22T10:58:31;22.60;;;12.88;;
85510;SDS011;75921;51.616;11.880;2024-03-22T11:00:56;25.65;;;13.77;;
85510;SDS011;75921;51.616;11.880;2024-03-22T11:03:23;30.75;;;18.77;;
85510;SDS011;75921;51.616;11.880;2024-03-22T11:05:56;48.08;;;15.68;;
85510;SDS011;75921;51.616;11.880;2024-03-22T11:13:19;27.15;;;16.17;;
85510;SDS011;75921;51.616;11.880;2024-03-22T11:15:46;28.33;;;18.57;;
85510;SDS011;75921;51.616;11.880;2024-03-22T11:18:12;26.85;;;18.17;;
85510;SDS011;75921;51.616;11.880;2024-03-22T11:20:38;29.23;;;17.65;;
85510;SDS011;75921;51.616;11.880;2024-03-22T11:23:06;24.25;;;12.95;;
85510;SDS011;75921;51.616;11.880;2024-03-22T11:25:32;29.10;;;17.85;;
85510;SDS011;75921;51.616;11.880;2024-03-22T11:27:58;22.52;;;11.13;;
85510;SDS011;75921;51.616;11.880;2024-03-22T11:30:30;26.10;;;13.18;;
85510;SDS011;75921;51.616;11.880;2024-03-22T11:32:57;29.40;;;19.67;;
85510;SDS011;75921;51.616;11.880;2024-03-22T11:35:22;30.73;;;19.98;;
85510;SDS011;75921;51.616;11.880;2024-03-22T11:37:49;28.00;;;15.48;;
85510;SDS011;75921;51.616;11.880;2024-03-22T11:40:15;28.50;;;19.60;;
85510;SDS011;75921;51.616;11.880;2024-03-22T11:42:41;25.03;;;16.10;;
85510;SDS011;75921;51.616;11.880;2024-03-22T11:45:10;27.30;;;15.57;;
85510;SDS011;75921;51.616;11.880;2024-03-22T11:47:38;35.60;;;16.00;;
85510;SDS011;75921;51.616;11.880;2024-03-22T11:50:03;29.77;;;17.02;;
85510;SDS011;75921;51.616;11.880;2024-03-22T11:52:29;25.45;;;13.48;;
85510;SDS011;75921;51.616;11.880;2024-03-22T11:54:55;25.67;;;13.57;;
85510;SDS011;75921;51.616;11.880;2024-03-22T11:57:21;28.60;;;17.58;;
85510;SDS011;75921;51.616;11.880;2024-03-22T11:59:48;25.85;;;14.15;;
85510;SDS011;75921;51.616;11.880;2024-03-22T12:02:13;28.77;;;16.90;;
85510;SDS011;75921;51.616;11.880;2024-03-22T12:04:42;29.20;;;15.55;;
85510;SDS011;75921;51.616;11.880;2024-03-22T12:07:10;34.97;;;16.80;;
85510;SDS011;75921;51.616;11.880;2024-03-22T12:09:36;23.67;;;13.60;;
85510;SDS011;75921;51.616;11.880;2024-03-22T12:12:01;29.57;;;15.50;;
85510;SDS011;75921;51.616;11.880;2024-03-22T12:14:26;25.48;;;12.23;;
85510;SDS011;75921;51.616;11.880;2024-03-22T12:16:52;32.93;;;17.57;;
85510;SDS011;75921;51.616;11.880;2024-03-22T12:19:17;29.27;;;15.93;;
85510;SDS011;75921;51.616;11.880;2024-03-22T12:21:42;28.27;;;15.03;;
85510;SDS011;75921;51.616;11.880;2024-03-22T12:24:07;28.60;;;14.43;;
85510;SDS011;75921;51.616;11.880;2024-03-22T12:26:33;29.23;;;17.03;;
85510;SDS011;75921;51.616;11.880;2024-03-22T12:28:58;31.13;;;19.73;;
85510;SDS011;75921;51.616;11.880;2024-03-22T12:31:23;29.47;;;14.13;;
85510;SDS011;75921;51.616;11.880;2024-03-22T12:33:48;30.03;;;13.10;;
85510;SDS011;75921;51.616;11.880;2024-03-22T12:36:14;31.60;;;19.33;;
85510;SDS011;75921;51.616;11.880;2024-03-22T12:38:39;32.53;;;19.03;;
85510;SDS011;75921;51.616;11.880;2024-03-22T12:41:04;27.43;;;14.70;;
85510;SDS011;75921;51.616;11.880;2024-03-22T12:43:30;29.70;;;15.70;;
85510;SDS011;75921;51.616;11.880;2024-03-22T12:45:56;29.83;;;18.20;;
85510;SDS011;75921;51.616;11.880;2024-03-22T12:48:21;25.53;;;13.63;;
85510;SDS011;75921;51.616;11.880;2024-03-22T12:50:46;29.40;;;15.47;;
85510;SDS011;75921;51.616;11.880;2024-03-22T12:53:11;23.73;;;11.50;;
85510;SDS011;75921;51.616;11.880;2024-03-22T12:55:37;30.20;;;15.30;;
85510;SDS011;75921;51.616;11.880;2024-03-22T12:58:02;33.00;;;18.50;;
85510;SDS011;75921;51.616;11.880;2024-03-22T13:00:28;31.33;;;18.88;;
85510;SDS011;75921;51.616;11.880;2024-03-22T13:02:53;32.63;;;17.23;;
85510;SDS011;75921;51.616;11.880;2024-03-22T13:05:18;37.30;;;20.33;;
85510;SDS011;75921;51.616;11.880;2024-03-22T13:07:44;36.58;;;20.10;;
85510;SDS011;75921;51.616;11.880;2024-03-22T13:10:09;35.10;;;24.00;;
85510;SDS011;75921;51.616;11.880;2024-03-22T13:12:35;35.15;;;18.48;;
85510;SDS011;75921;51.616;11.880;2024-03-22T13:15:00;40.10;;;19.97;;
85510;SDS011;75921;51.616;11.880;2024-03-22T13:17:26;29.88;;;16.98;;
85510;SDS011;75921;51.616;11.880;2024-03-22T13:19:51;34.10;;;19.00;;
85510;SDS011;75921;51.616;11.880;2024-03-22T13:22:17;41.67;;;24.73;;
85510;SDS011;75921;51.616;11.880;2024-03-22T13:24:43;35.47;;;19.88;;
85510;SDS011;75921;51.616;11.880;2024-03-22T13:27:12;26.73;;;15.50;;
85510;SDS011;75921;51.616;11.880;2024-03-22T13:29:38;34.08;;;23.35;;
85510;SDS011;75921;51.616;11.880;2024-03-22T13:32:04;33.78;;;17.48;;
85510;SDS011;75921;51.616;11.880;2024-03-22T13:34:31;33.40;;;17.17;;
85510;SDS011;75921;51.616;11.880;2024-03-22T13:36:58;31.85;;;18.33;;
85510;SDS011;75921;51.616;11.880;2024-03-22T13:39:23;29.57;;;17.73;;
85510;SDS011;75921;51.616;11.880;2024-03-22T13:41:48;32.90;;;17.80;;
85510;SDS011;75921;51.616;11.880;2024-03-22T13:44:13;33.10;;;19.50;;
85510;SDS011;75921;51.616;11.880;2024-03-22T13:46:39;34.40;;;22.87;;
85510;SDS011;75921;51.616;11.880;2024-03-22T13:49:16;34.85;;;23.17;;
85510;SDS011;75921;51.616;11.880;2024-03-22T13:51:42;37.95;;;20.83;;
85510;SDS011;75921;51.616;11.880;2024-03-22T13:54:08;33.47;;;19.95;;
85510;SDS011;75921;51.616;11.880;2024-03-22T13:56:34;36.72;;;19.60;;
85510;SDS011;75921;51.616;11.880;2024-03-22T13:58:59;38.00;;;20.77;;
85510;SDS011;75921;51.616;11.880;2024-03-22T14:01:25;38.13;;;21.13;;
85510;SDS011;75921;51.616;11.880;2024-03-22T14:03:50;36.35;;;21.27;;
85510;SDS011;75921;51.616;11.880;2024-03-22T14:06:15;42.03;;;26.65;;
85510;SDS011;75921;51.616;11.880;2024-03-22T14:08:41;37.53;;;24.60;;